sensor_id;sensor_type;location;lat;lon;timestamp;temperature;humidity
32614;DHT22;19031;51.400;6.770;2023-05-07T00:00:40;15.70;99.90
32614;DHT22;19031;51.400;6.770;2023-05-07T00:03:05;15.70;99.90
32614;DHT22;19031;51.400;6.770;2023-05-07T00:05:32;15.70;99.90
32614;DHT22;19031;51.400;6.770;2023-05-07T00:07:57;15.70;99.90
32614;DHT22;19031;51.400;6.770;2023-05-07T00:10:23;15.70;99.90
32614;DHT22;19031;51.400;6.770;2023-05-07T00:12:49;15.70;99.90
32614;DHT22;19031;51.400;6.770;2023-05-07T00:15:14;15.70;99.90
32614;DHT22;19031;51.400;6.770;2023-05-07T00:17:40;15.70;99.90
32614;DHT22;19031;51.400;6.770;2023-05-07T00:20:08;15.70;99.90
32614;DHT22;19031;51.400;6.770;2023-05-07T00:22:34;15.70;99.90
32614;DHT22;19031;51.400;6.770;2023-05-07T00:24:59;15.60;99.90
32614;DHT22;19031;51.400;6.770;2023-05-07T00:27:25;15.60;99.90
32614;DHT22;19031;51.400;6.770;2023-05-07T00:29:51;15.60;99.90
32614;DHT22;19031;51.400;6.770;2023-05-07T00:32:17;15.60;99.90
32614;DHT22;19031;51.400;6.770;2023-05-07T00:34:43;15.50;99.90
32614;DHT22;19031;51.400;6.770;2023-05-07T00:37:09;15.50;99.90
32614;DHT22;19031;51.400;6.770;2023-05-07T00:39:35;15.40;99.90
32614;DHT22;19031;51.400;6.770;2023-05-07T00:42:01;15.50;99.90
32614;DHT22;19031;51.400;6.770;2023-05-07T00:44:28;15.40;99.90
32614;DHT22;19031;51.400;6.770;2023-05-07T00:46:56;15.40;99.90
32614;DHT22;19031;51.400;6.770;2023-05-07T00:49:23;15.40;99.90
32614;DHT22;19031;51.400;6.770;2023-05-07T00:51:51;15.40;99.90
32614;DHT22;19031;51.400;6.770;2023-05-07T00:54:17;15.30;99.90
32614;DHT22;19031;51.400;6.770;2023-05-07T00:56:44;15.20;99.90
32614;DHT22;19031;51.400;6.770;2023-05-07T00:59:10;15.20;99.90
32614;DHT22;19031;51.400;6.770;2023-05-07T01:01:36;15.10;99.90
32614;DHT22;19031;51.400;6.770;2023-05-07T01:04:02;15.10;99.90
32614;DHT22;19031;51.400;6.770;2023-05-07T01:06:29;15.10;99.90
32614;DHT22;19031;51.400;6.770;2023-05-07T01:08:56;15.00;99.90
32614;DHT22;19031;51.400;6.770;2023-05-07T01:11:23;14.90;99.90
32614;DHT22;19031;51.400;6.770;2023-05-07T01:13:49;14.80;99.90
32614;DHT22;19031;51.400;6.770;2023-05-07T01:16:16;14.80;99.90
32614;DHT22;19031;51.400;6.770;2023-05-07T01:18:42;14.80;99.90
32614;DHT22;19031;51.400;6.770;2023-05-07T01:21:11;14.70;99.90
32614;DHT22;19031;51.400;6.770;2023-05-07T01:23:41;14.80;99.90
32614;DHT22;19031;51.400;6.770;2023-05-07T01:26:06;14.70;99.90
32614;DHT22;19031;51.400;6.770;2023-05-07T01:28:32;14.70;99.90
32614;DHT22;19031;51.400;6.770;2023-05-07T01:31:03;14.70;99.90
32614;DHT22;19031;51.400;6.770;2023-05-07T01:33:31;14.70;99.90
32614;DHT22;19031;51.400;6.770;2023-05-07T01:35:57;14.60;99.90
32614;DHT22;19031;51.400;6.770;2023-05-07T01:38:26;14.60;99.90
32614;DHT22;19031;51.400;6.770;2023-05-07T01:40:52;14.50;99.90
32614;DHT22;19031;51.400;6.770;2023-05-07T01:43:19;14.60;99.90
32614;DHT22;19031;51.400;6.770;2023-05-07T01:45:45;14.50;99.90
32614;DHT22;19031;51.400;6.770;2023-05-07T01:48:12;14.50;99.90
32614;DHT22;19031;51.400;6.770;2023-05-07T01:50:39;14.50;99.90
32614;DHT22;19031;51.400;6.770;2023-05-07T01:53:05;14.40;99.90
32614;DHT22;19031;51.400;6.770;2023-05-07T01:55:34;14.40;99.90
32614;DHT22;19031;51.400;6.770;2023-05-07T01:57:59;14.40;99.90
32614;DHT22;19031;51.400;6.770;2023-05-07T02:00:25;14.40;99.90
32614;DHT22;19031;51.400;6.770;2023-05-07T02:02:51;14.50;99.90
32614;DHT22;19031;51.400;6.770;2023-05-07T02:05:18;14.40;99.90
32614;DHT22;19031;51.400;6.770;2023-05-07T02:07:43;14.40;99.90
32614;DHT22;19031;51.400;6.770;2023-05-07T02:10:09;14.40;99.90
32614;DHT22;19031;51.400;6.770;2023-05-07T02:12:35;14.40;99.90
32614;DHT22;19031;51.400;6.770;2023-05-07T02:15:00;14.30;99.90
32614;DHT22;19031;51.400;6.770;2023-05-07T02:17:26;14.40;99.90
32614;DHT22;19031;51.400;6.770;2023-05-07T02:19:51;14.40;99.90
32614;DHT22;19031;51.400;6.770;2023-05-07T02:22:18;14.40;99.90
32614;DHT22;19031;51.400;6.770;2023-05-07T02:24:43;14.30;99.90
32614;DHT22;19031;51.400;6.770;2023-05-07T02:27:09;14.30;99.90
32614;DHT22;19031;51.400;6.770;2023-05-07T02:29:35;14.30;99.90
32614;DHT22;19031;51.400;6.770;2023-05-07T02:32:01;14.30;99.90
32614;DHT22;19031;51.400;6.770;2023-05-07T02:34:26;14.40;99.90
32614;DHT22;19031;51.400;6.770;2023-05-07T02:36:52;14.40;99.90
32614;DHT22;19031;51.400;6.770;2023-05-07T02:39:17;14.30;99.90
32614;DHT22;19031;51.400;6.770;2023-05-07T02:41:43;14.20;99.90
32614;DHT22;19031;51.400;6.770;2023-05-07T02:44:08;14.30;99.90
32614;DHT22;19031;51.400;6.770;2023-05-07T02:46:34;14.20;99.90
32614;DHT22;19031;51.400;6.770;2023-05-07T02:49:00;14.10;99.90
32614;DHT22;19031;51.400;6.770;2023-05-07T02:51:25;14.00;99.90
32614;DHT22;19031;51.400;6.770;2023-05-07T02:53:51;14.10;99.90
32614;DHT22;19031;51.400;6.770;2023-05-07T02:56:17;14.20;99.90
32614;DHT22;19031;51.400;6.770;2023-05-07T02:58:42;14.10;99.90
32614;DHT22;19031;51.400;6.770;2023-05-07T03:01:08;14.10;99.90
32614;DHT22;19031;51.400;6.770;2023-05-07T03:03:34;14.20;99.90
32614;DHT22;19031;51.400;6.770;2023-05-07T03:06:00;14.20;99.90
32614;DHT22;19031;51.400;6.770;2023-05-07T03:08:26;14.20;99.90
32614;DHT22;19031;51.400;6.770;2023-05-07T03:10:52;14.00;99.90
32614;DHT22;19031;51.400;6.770;2023-05-07T03:13:18;14.00;99.90
32614;DHT22;19031;51.400;6.770;2023-05-07T03:15:44;14.10;99.90
32614;DHT22;19031;51.400;6.770;2023-05-07T03:18:09;14.00;99.90
32614;DHT22;19031;51.400;6.770;2023-05-07T03:20:35;14.10;99.90
32614;DHT22;19031;51.400;6.770;2023-05-07T03:23:02;14.00;99.90
32614;DHT22;19031;51.400;6.770;2023-05-07T03:25:27;14.00;99.90
32614;DHT22;19031;51.400;6.770;2023-05-07T03:27:53;14.00;99.90
32614;DHT22;19031;51.400;6.770;2023-05-07T03:30:19;14.00;99.90
32614;DHT22;19031;51.400;6.770;2023-05-07T03:32:45;14.00;99.90
32614;DHT22;19031;51.400;6.770;2023-05-07T03:35:11;14.00;99.90
32614;DHT22;19031;51.400;6.770;2023-05-07T03:37:38;14.00;99.90
32614;DHT22;19031;51.400;6.770;2023-05-07T03:40:04;14.20;99.90
32614;DHT22;19031;51.400;6.770;2023-05-07T03:42:30;14.00;99.90
32614;DHT22;19031;51.400;6.770;2023-05-07T03:44:56;14.00;99.90
32614;DHT22;19031;51.400;6.770;2023-05-07T03:47:21;14.10;99.90
32614;DHT22;19031;51.400;6.770;2023-05-07T03:49:47;14.00;99.90
32614;DHT22;19031;51.400;6.770;2023-05-07T03:52:14;14.00;99.90
32614;DHT22;19031;51.400;6.770;2023-05-07T03:54:39;14.00;99.90
32614;DHT22;19031;51.400;6.770;2023-05-07T03:57:05;14.00;99.90
32614;DHT22;19031;51.400;6.770;2023-05-07T03:59:31;14.00;99.90
32614;DHT22;19031;51.400;6.770;2023-05-07T04:01:57;14.00;99.90
32614;DHT22;19031;51.400;6.770;2023-05-07T04:04:23;14.00;99.90
32614;DHT22;19031;51.400;6.770;2023-05-07T04:06:49;14.00;99.90
32614;DHT22;19031;51.400;6.770;2023-05-07T04:09:14;14.00;99.90
32614;DHT22;19031;51.400;6.770;2023-05-07T04:11:40;13.90;99.90
32614;DHT22;19031;51.400;6.770;2023-05-07T04:14:06;13.90;99.90
32614;DHT22;19031;51.400;6.770;2023-05-07T04:16:31;13.90;99.90
32614;DHT22;19031;51.400;6.770;2023-05-07T04:18:57;14.00;99.90
32614;DHT22;19031;51.400;6.770;2023-05-07T04:21:22;14.10;99.90
32614;DHT22;19031;51.400;6.770;2023-05-07T04:23:48;14.00;99.90
32614;DHT22;19031;51.400;6.770;2023-05-07T04:26:15;14.20;99.90
32614;DHT22;19031;51.400;6.770;2023-05-07T04:28:41;14.10;99.90
32614;DHT22;19031;51.400;6.770;2023-05-07T04:31:07;14.10;99.90
32614;DHT22;19031;51.400;6.770;2023-05-07T04:33:33;14.20;99.90
32614;DHT22;19031;51.400;6.770;2023-05-07T04:36:01;14.10;99.90
32614;DHT22;19031;51.400;6.770;2023-05-07T04:38:31;14.10;99.90
32614;DHT22;19031;51.400;6.770;2023-05-07T04:40:58;14.30;99.90
32614;DHT22;19031;51.400;6.770;2023-05-07T04:43:23;14.20;99.90
32614;DHT22;19031;51.400;6.770;2023-05-07T04:45:52;14.30;99.90
32614;DHT22;19031;51.400;6.770;2023-05-07T04:48:18;14.20;99.90
32614;DHT22;19031;51.400;6.770;2023-05-07T04:50:49;14.30;99.90
32614;DHT22;19031;51.400;6.770;2023-05-07T04:53:15;14.30;99.90
32614;DHT22;19031;51.400;6.770;2023-05-07T04:55:41;14.30;99.90
32614;DHT22;19031;51.400;6.770;2023-05-07T04:58:07;14.30;99.90
32614;DHT22;19031;51.400;6.770;2023-05-07T05:00:33;14.40;99.90
32614;DHT22;19031;51.400;6.770;2023-05-07T05:02:59;14.40;99.90
32614;DHT22;19031;51.400;6.770;2023-05-07T05:05:24;14.40;99.90
32614;DHT22;19031;51.400;6.770;2023-05-07T05:07:50;14.50;99.90
32614;DHT22;19031;51.400;6.770;2023-05-07T05:10:17;14.60;99.90
32614;DHT22;19031;51.400;6.770;2023-05-07T05:12:43;14.60;99.90
32614;DHT22;19031;51.400;6.770;2023-05-07T05:15:09;14.70;99.90
32614;DHT22;19031;51.400;6.770;2023-05-07T05:17:35;14.80;99.90
32614;DHT22;19031;51.400;6.770;2023-05-07T05:20:02;14.80;99.90
32614;DHT22;19031;51.400;6.770;2023-05-07T05:22:27;14.90;99.90
32614;DHT22;19031;51.400;6.770;2023-05-07T05:24:55;14.90;99.90
32614;DHT22;19031;51.400;6.770;2023-05-07T05:27:20;15.00;99.90
32614;DHT22;19031;51.400;6.770;2023-05-07T05:29:46;15.00;99.90
32614;DHT22;19031;51.400;6.770;2023-05-07T05:32:11;15.10;99.90
32614;DHT22;19031;51.400;6.770;2023-05-07T05:34:37;15.10;99.90
32614;DHT22;19031;51.400;6.770;2023-05-07T05:37:02;15.10;99.90
32614;DHT22;19031;51.400;6.770;2023-05-07T05:39:28;15.20;99.90
32614;DHT22;19031;51.400;6.770;2023-05-07T05:41:53;15.20;99.90
32614;DHT22;19031;51.400;6.770;2023-05-07T05:44:19;15.30;99.90
32614;DHT22;19031;51.400;6.770;2023-05-07T05:46:45;15.30;99.90
32614;DHT22;19031;51.400;6.770;2023-05-07T05:49:10;15.40;99.90
32614;DHT22;19031;51.400;6.770;2023-05-07T05:51:36;15.50;99.90
32614;DHT22;19031;51.400;6.770;2023-05-07T05:54:02;15.50;99.90
32614;DHT22;19031;51.400;6.770;2023-05-07T05:56:27;15.60;99.90
32614;DHT22;19031;51.400;6.770;2023-05-07T05:58:53;15.70;99.90
32614;DHT22;19031;51.400;6.770;2023-05-07T06:01:18;16.00;99.90
32614;DHT22;19031;51.400;6.770;2023-05-07T06:03:44;16.00;99.90
32614;DHT22;19031;51.400;6.770;2023-05-07T06:06:10;16.10;99.90
32614;DHT22;19031;51.400;6.770;2023-05-07T06:08:35;16.30;99.90
32614;DHT22;19031;51.400;6.770;2023-05-07T06:11:02;16.50;99.90
32614;DHT22;19031;51.400;6.770;2023-05-07T06:13:28;16.60;99.90
32614;DHT22;19031;51.400;6.770;2023-05-07T06:15:53;16.70;99.90
32614;DHT22;19031;51.400;6.770;2023-05-07T06:18:19;16.70;99.90
32614;DHT22;19031;51.400;6.770;2023-05-07T06:20:44;16.70;99.90
32614;DHT22;19031;51.400;6.770;2023-05-07T06:23:10;16.90;99.90
32614;DHT22;19031;51.400;6.770;2023-05-07T06:25:36;17.00;99.90
32614;DHT22;19031;51.400;6.770;2023-05-07T06:28:01;17.10;99.90
32614;DHT22;19031;51.400;6.770;2023-05-07T06:30:27;17.00;99.90
32614;DHT22;19031;51.400;6.770;2023-05-07T06:32:52;17.20;99.90
32614;DHT22;19031;51.400;6.770;2023-05-07T06:35:18;17.20;99.90
32614;DHT22;19031;51.400;6.770;2023-05-07T06:37:44;17.30;99.90
32614;DHT22;19031;51.400;6.770;2023-05-07T06:40:10;17.40;99.90
32614;DHT22;19031;51.400;6.770;2023-05-07T06:42:36;17.40;99.90
32614;DHT22;19031;51.400;6.770;2023-05-07T06:45:02;17.50;99.90
32614;DHT22;19031;51.400;6.770;2023-05-07T06:47:28;17.60;99.90
32614;DHT22;19031;51.400;6.770;2023-05-07T06:49:53;17.70;99.90
32614;DHT22;19031;51.400;6.770;2023-05-07T06:52:19;17.80;99.90
32614;DHT22;19031;51.400;6.770;2023-05-07T06:54:45;17.70;99.90
32614;DHT22;19031;51.400;6.770;2023-05-07T06:57:10;17.90;99.90
32614;DHT22;19031;51.400;6.770;2023-05-07T06:59:36;18.00;99.90
32614;DHT22;19031;51.400;6.770;2023-05-07T07:02:01;18.10;99.90
32614;DHT22;19031;51.400;6.770;2023-05-07T07:04:30;18.10;99.90
32614;DHT22;19031;51.400;6.770;2023-05-07T07:06:56;18.30;99.90
32614;DHT22;19031;51.400;6.770;2023-05-07T07:09:22;18.30;99.90
32614;DHT22;19031;51.400;6.770;2023-05-07T07:11:47;18.40;99.90
32614;DHT22;19031;51.400;6.770;2023-05-07T07:14:13;18.60;99.90
32614;DHT22;19031;51.400;6.770;2023-05-07T07:16:39;18.70;99.90
32614;DHT22;19031;51.400;6.770;2023-05-07T07:19:05;18.90;99.90
32614;DHT22;19031;51.400;6.770;2023-05-07T07:21:30;19.00;99.90
32614;DHT22;19031;51.400;6.770;2023-05-07T07:23:56;19.20;99.90
32614;DHT22;19031;51.400;6.770;2023-05-07T07:26:21;19.20;99.90
32614;DHT22;19031;51.400;6.770;2023-05-07T07:28:47;19.20;99.90
32614;DHT22;19031;51.400;6.770;2023-05-07T07:31:13;19.40;99.90
32614;DHT22;19031;51.400;6.770;2023-05-07T07:33:39;19.70;99.90
32614;DHT22;19031;51.400;6.770;2023-05-07T07:36:06;19.40;99.90
32614;DHT22;19031;51.400;6.770;2023-05-07T07:38:32;19.50;99.90
32614;DHT22;19031;51.400;6.770;2023-05-07T07:40:58;19.60;99.90
32614;DHT22;19031;51.400;6.770;2023-05-07T07:43:23;19.70;99.90
32614;DHT22;19031;51.400;6.770;2023-05-07T07:45:49;19.90;99.90
32614;DHT22;19031;51.400;6.770;2023-05-07T07:48:15;20.20;99.90
32614;DHT22;19031;51.400;6.770;2023-05-07T07:50:40;20.50;99.90
32614;DHT22;19031;51.400;6.770;2023-05-07T07:53:06;20.40;99.90
32614;DHT22;19031;51.400;6.770;2023-05-07T07:55:32;20.60;99.90
32614;DHT22;19031;51.400;6.770;2023-05-07T07:57:57;20.90;99.90
32614;DHT22;19031;51.400;6.770;2023-05-07T08:00:23;21.20;99.90
32614;DHT22;19031;51.400;6.770;2023-05-07T08:02:48;21.40;99.90
32614;DHT22;19031;51.400;6.770;2023-05-07T08:05:17;21.80;99.90
32614;DHT22;19031;51.400;6.770;2023-05-07T08:07:43;22.00;99.90
32614;DHT22;19031;51.400;6.770;2023-05-07T08:10:09;22.50;99.90
32614;DHT22;19031;51.400;6.770;2023-05-07T08:12:38;23.00;99.90
32614;DHT22;19031;51.400;6.770;2023-05-07T08:15:03;23.40;99.90
32614;DHT22;19031;51.400;6.770;2023-05-07T08:17:33;23.60;99.90
32614;DHT22;19031;51.400;6.770;2023-05-07T08:19:58;23.90;99.90
32614;DHT22;19031;51.400;6.770;2023-05-07T08:22:27;23.90;99.90
32614;DHT22;19031;51.400;6.770;2023-05-07T08:24:52;24.20;99.90
32614;DHT22;19031;51.400;6.770;2023-05-07T08:27:18;24.00;99.90
32614;DHT22;19031;51.400;6.770;2023-05-07T08:29:47;24.10;99.90
32614;DHT22;19031;51.400;6.770;2023-05-07T08:32:17;24.00;99.90
32614;DHT22;19031;51.400;6.770;2023-05-07T08:34:42;23.90;99.90
32614;DHT22;19031;51.400;6.770;2023-05-07T08:37:08;24.00;99.90
32614;DHT22;19031;51.400;6.770;2023-05-07T08:39:33;24.10;99.90
32614;DHT22;19031;51.400;6.770;2023-05-07T08:42:00;23.80;99.90
32614;DHT22;19031;51.400;6.770;2023-05-07T08:44:35;23.90;99.90
32614;DHT22;19031;51.400;6.770;2023-05-07T08:47:07;24.00;99.90
32614;DHT22;19031;51.400;6.770;2023-05-07T08:49:34;24.10;99.90
32614;DHT22;19031;51.400;6.770;2023-05-07T08:52:00;24.30;99.90
32614;DHT22;19031;51.400;6.770;2023-05-07T08:54:26;24.50;99.90
32614;DHT22;19031;51.400;6.770;2023-05-07T08:56:53;24.60;99.90
32614;DHT22;19031;51.400;6.770;2023-05-07T08:59:18;24.90;99.90
32614;DHT22;19031;51.400;6.770;2023-05-07T09:01:44;25.00;99.90
32614;DHT22;19031;51.400;6.770;2023-05-07T09:04:10;25.20;99.90
32614;DHT22;19031;51.400;6.770;2023-05-07T09:06:35;25.80;99.90
32614;DHT22;19031;51.400;6.770;2023-05-07T09:09:06;26.10;99.90
32614;DHT22;19031;51.400;6.770;2023-05-07T09:11:32;26.50;99.90
32614;DHT22;19031;51.400;6.770;2023-05-07T09:13:57;26.90;99.90
32614;DHT22;19031;51.400;6.770;2023-05-07T09:16:29;27.10;99.90
32614;DHT22;19031;51.400;6.770;2023-05-07T09:18:58;26.90;99.90
32614;DHT22;19031;51.400;6.770;2023-05-07T09:21:24;26.80;99.90
32614;DHT22;19031;51.400;6.770;2023-05-07T09:23:51;27.00;99.90
32614;DHT22;19031;51.400;6.770;2023-05-07T09:26:18;27.00;99.90
32614;DHT22;19031;51.400;6.770;2023-05-07T09:28:46;27.30;99.90
32614;DHT22;19031;51.400;6.770;2023-05-07T09:31:12;27.60;99.90
32614;DHT22;19031;51.400;6.770;2023-05-07T09:33:38;28.00;99.90
32614;DHT22;19031;51.400;6.770;2023-05-07T09:36:08;28.00;99.20
32614;DHT22;19031;51.400;6.770;2023-05-07T09:38:36;28.00;99.00
32614;DHT22;19031;51.400;6.770;2023-05-07T09:41:07;27.80;99.30
32614;DHT22;19031;51.400;6.770;2023-05-07T09:43:37;27.90;97.80
32614;DHT22;19031;51.400;6.770;2023-05-07T09:46:14;28.30;97.80
32614;DHT22;19031;51.400;6.770;2023-05-07T09:48:41;28.70;97.10
32614;DHT22;19031;51.400;6.770;2023-05-07T09:53:43;28.50;97.10
32614;DHT22;19031;51.400;6.770;2023-05-07T09:56:12;28.60;96.30
32614;DHT22;19031;51.400;6.770;2023-05-07T09:58:42;28.90;96.70
32614;DHT22;19031;51.400;6.770;2023-05-07T10:01:12;29.10;96.50
32614;DHT22;19031;51.400;6.770;2023-05-07T10:03:41;29.30;95.70
32614;DHT22;19031;51.400;6.770;2023-05-07T10:06:09;29.40;96.70
32614;DHT22;19031;51.400;6.770;2023-05-07T10:08:36;29.40;94.80
32614;DHT22;19031;51.400;6.770;2023-05-07T10:11:04;29.50;93.70
32614;DHT22;19031;51.400;6.770;2023-05-07T10:13:30;29.60;91.60
32614;DHT22;19031;51.400;6.770;2023-05-07T10:15:55;29.80;93.50
32614;DHT22;19031;51.400;6.770;2023-05-07T10:18:22;29.80;93.20
32614;DHT22;19031;51.400;6.770;2023-05-07T10:20:50;30.10;92.70
32614;DHT22;19031;51.400;6.770;2023-05-07T10:23:22;30.40;91.40
32614;DHT22;19031;51.400;6.770;2023-05-07T10:25:48;30.70;90.30
32614;DHT22;19031;51.400;6.770;2023-05-07T10:28:15;30.30;82.70
32614;DHT22;19031;51.400;6.770;2023-05-07T10:33:42;30.20;86.70
32614;DHT22;19031;51.400;6.770;2023-05-07T10:36:10;30.00;84.00
32614;DHT22;19031;51.400;6.770;2023-05-07T10:38:39;29.80;85.40
32614;DHT22;19031;51.400;6.770;2023-05-07T10:41:09;29.90;88.50
32614;DHT22;19031;51.400;6.770;2023-05-07T10:43:42;29.80;88.30
32614;DHT22;19031;51.400;6.770;2023-05-07T10:46:15;30.00;89.50
32614;DHT22;19031;51.400;6.770;2023-05-07T10:51:33;30.10;89.90
32614;DHT22;19031;51.400;6.770;2023-05-07T10:56:37;30.00;92.50
32614;DHT22;19031;51.400;6.770;2023-05-07T11:02:02;29.90;89.70
32614;DHT22;19031;51.400;6.770;2023-05-07T11:04:29;30.00;91.60
32614;DHT22;19031;51.400;6.770;2023-05-07T11:15:10;29.60;87.00
32614;DHT22;19031;51.400;6.770;2023-05-07T11:17:55;29.30;87.90
32614;DHT22;19031;51.400;6.770;2023-05-07T11:20:51;29.00;90.50
32614;DHT22;19031;51.400;6.770;2023-05-07T11:26:07;29.00;90.20
32614;DHT22;19031;51.400;6.770;2023-05-07T11:28:40;28.60;90.80
32614;DHT22;19031;51.400;6.770;2023-05-07T11:31:07;28.40;93.60
32614;DHT22;19031;51.400;6.770;2023-05-07T11:33:33;28.40;94.40
32614;DHT22;19031;51.400;6.770;2023-05-07T11:36:03;27.90;95.00
32614;DHT22;19031;51.400;6.770;2023-05-07T11:38:36;27.50;96.20
32614;DHT22;19031;51.400;6.770;2023-05-07T11:41:02;27.30;96.50
32614;DHT22;19031;51.400;6.770;2023-05-07T11:43:33;27.20;98.10
32614;DHT22;19031;51.400;6.770;2023-05-07T11:46:11;27.20;98.10
32614;DHT22;19031;51.400;6.770;2023-05-07T11:48:37;27.00;97.90
32614;DHT22;19031;51.400;6.770;2023-05-07T11:51:05;27.00;97.80
32614;DHT22;19031;51.400;6.770;2023-05-07T11:53:39;26.90;98.70
32614;DHT22;19031;51.400;6.770;2023-05-07T11:56:09;26.80;97.70
32614;DHT22;19031;51.400;6.770;2023-05-07T11:58:35;26.50;98.10
32614;DHT22;19031;51.400;6.770;2023-05-07T12:01:02;25.90;99.30
32614;DHT22;19031;51.400;6.770;2023-05-07T12:03:27;25.70;99.90
32614;DHT22;19031;51.400;6.770;2023-05-07T12:05:53;25.50;99.90
32614;DHT22;19031;51.400;6.770;2023-05-07T12:08:19;25.40;99.90
32614;DHT22;19031;51.400;6.770;2023-05-07T12:10:47;25.20;99.90
32614;DHT22;19031;51.400;6.770;2023-05-07T12:13:22;25.00;99.90
32614;DHT22;19031;51.400;6.770;2023-05-07T12:15:51;24.90;99.90
32614;DHT22;19031;51.400;6.770;2023-05-07T12:18:17;24.90;99.90
32614;DHT22;19031;51.400;6.770;2023-05-07T12:20:43;24.90;99.90
32614;DHT22;19031;51.400;6.770;2023-05-07T12:23:08;25.00;99.90
32614;DHT22;19031;51.400;6.770;2023-05-07T12:25:42;24.80;99.90
32614;DHT22;19031;51.400;6.770;2023-05-07T12:28:14;24.70;99.90
32614;DHT22;19031;51.400;6.770;2023-05-07T12:30:42;24.70;99.90
32614;DHT22;19031;51.400;6.770;2023-05-07T12:33:08;24.60;99.90
32614;DHT22;19031;51.400;6.770;2023-05-07T12:35:42;24.50;99.90
32614;DHT22;19031;51.400;6.770;2023-05-07T12:38:17;24.70;99.90
32614;DHT22;19031;51.400;6.770;2023-05-07T12:40:48;24.80;99.90
32614;DHT22;19031;51.400;6.770;2023-05-07T12:43:27;24.80;99.90
32614;DHT22;19031;51.400;6.770;2023-05-07T12:45:59;24.90;99.90
32614;DHT22;19031;51.400;6.770;2023-05-07T12:48:25;24.80;99.90
32614;DHT22;19031;51.400;6.770;2023-05-07T12:51:00;24.70;99.90
32614;DHT22;19031;51.400;6.770;2023-05-07T12:53:27;24.60;99.90
32614;DHT22;19031;51.400;6.770;2023-05-07T12:55:55;24.50;99.90
32614;DHT22;19031;51.400;6.770;2023-05-07T12:58:34;24.30;99.90
32614;DHT22;19031;51.400;6.770;2023-05-07T13:01:05;24.30;99.90
32614;DHT22;19031;51.400;6.770;2023-05-07T13:03:35;24.30;99.90
32614;DHT22;19031;51.400;6.770;2023-05-07T13:06:06;24.10;99.90
32614;DHT22;19031;51.400;6.770;2023-05-07T13:08:33;23.80;99.90
32614;DHT22;19031;51.400;6.770;2023-05-07T13:11:00;23.80;99.90
32614;DHT22;19031;51.400;6.770;2023-05-07T13:13:34;23.60;99.90
32614;DHT22;19031;51.400;6.770;2023-05-07T13:16:04;23.60;99.90
32614;DHT22;19031;51.400;6.770;2023-05-07T13:18:33;23.70;99.90
32614;DHT22;19031;51.400;6.770;2023-05-07T13:21:00;23.70;99.90
32614;DHT22;19031;51.400;6.770;2023-05-07T13:23:27;23.70;99.90
32614;DHT22;19031;51.400;6.770;2023-05-07T13:25:53;23.50;99.90
32614;DHT22;19031;51.400;6.770;2023-05-07T13:28:22;23.60;99.90
32614;DHT22;19031;51.400;6.770;2023-05-07T13:30:48;23.30;99.90
32614;DHT22;19031;51.400;6.770;2023-05-07T13:33:14;23.40;99.90
32614;DHT22;19031;51.400;6.770;2023-05-07T13:35:41;23.30;99.90
32614;DHT22;19031;51.400;6.770;2023-05-07T13:38:07;23.20;99.90
32614;DHT22;19031;51.400;6.770;2023-05-07T13:40:33;23.00;99.90
32614;DHT22;19031;51.400;6.770;2023-05-07T13:42:59;23.00;99.90
32614;DHT22;19031;51.400;6.770;2023-05-07T13:45:29;22.80;99.90
32614;DHT22;19031;51.400;6.770;2023-05-07T13:47:56;22.70;99.90
32614;DHT22;19031;51.400;6.770;2023-05-07T13:50:22;22.50;99.90
32614;DHT22;19031;51.400;6.770;2023-05-07T13:52:47;22.40;99.90
32614;DHT22;19031;51.400;6.770;2023-05-07T13:55:20;22.30;99.90
32614;DHT22;19031;51.400;6.770;2023-05-07T13:57:55;22.20;99.90
32614;DHT22;19031;51.400;6.770;2023-05-07T14:00:24;22.00;99.90
32614;DHT22;19031;51.400;6.770;2023-05-07T14:02:55;21.90;99.90
32614;DHT22;19031;51.400;6.770;2023-05-07T14:05:22;21.80;99.90
32614;DHT22;19031;51.400;6.770;2023-05-07T14:07:54;21.80;99.90
32614;DHT22;19031;51.400;6.770;2023-05-07T14:10:20;21.70;99.90
32614;DHT22;19031;51.400;6.770;2023-05-07T14:12:46;21.60;99.90
32614;DHT22;19031;51.400;6.770;2023-05-07T14:15:12;21.40;99.90
32614;DHT22;19031;51.400;6.770;2023-05-07T14:17:38;20.90;99.90
32614;DHT22;19031;51.400;6.770;2023-05-07T14:20:04;20.60;99.90
32614;DHT22;19031;51.400;6.770;2023-05-07T14:22:32;20.30;99.90
32614;DHT22;19031;51.400;6.770;2023-05-07T14:24:58;20.20;99.90
32614;DHT22;19031;51.400;6.770;2023-05-07T14:27:23;20.10;99.90
32614;DHT22;19031;51.400;6.770;2023-05-07T14:29:52;20.00;99.90
32614;DHT22;19031;51.400;6.770;2023-05-07T14:32:18;19.90;99.90
32614;DHT22;19031;51.400;6.770;2023-05-07T14:34:44;19.90;99.90
32614;DHT22;19031;51.400;6.770;2023-05-07T14:37:10;19.80;99.90
32614;DHT22;19031;51.400;6.770;2023-05-07T14:39:36;19.80;99.90
32614;DHT22;19031;51.400;6.770;2023-05-07T14:42:02;19.60;99.90
32614;DHT22;19031;51.400;6.770;2023-05-07T14:44:27;19.60;99.90
32614;DHT22;19031;51.400;6.770;2023-05-07T14:46:53;19.60;99.90
32614;DHT22;19031;51.400;6.770;2023-05-07T14:49:19;19.60;99.90
32614;DHT22;19031;51.400;6.770;2023-05-07T14:51:45;19.60;99.90
32614;DHT22;19031;51.400;6.770;2023-05-07T14:54:12;19.60;99.90
32614;DHT22;19031;51.400;6.770;2023-05-07T14:56:38;19.50;99.90
32614;DHT22;19031;51.400;6.770;2023-05-07T14:59:07;19.40;99.90
32614;DHT22;19031;51.400;6.770;2023-05-07T15:01:37;19.50;99.90
32614;DHT22;19031;51.400;6.770;2023-05-07T15:04:12;19.50;99.90
32614;DHT22;19031;51.400;6.770;2023-05-07T15:06:41;19.60;99.90
32614;DHT22;19031;51.400;6.770;2023-05-07T15:09:06;19.60;99.90
32614;DHT22;19031;51.400;6.770;2023-05-07T15:11:33;19.50;99.90
32614;DHT22;19031;51.400;6.770;2023-05-07T15:14:19;19.50;99.90
32614;DHT22;19031;51.400;6.770;2023-05-07T15:16:47;19.70;99.90
32614;DHT22;19031;51.400;6.770;2023-05-07T15:19:13;19.70;99.90
32614;DHT22;19031;51.400;6.770;2023-05-07T15:21:40;19.80;99.90
32614;DHT22;19031;51.400;6.770;2023-05-07T15:24:06;19.90;99.90
32614;DHT22;19031;51.400;6.770;2023-05-07T15:26:32;19.90;99.90
32614;DHT22;19031;51.400;6.770;2023-05-07T15:28:57;19.90;99.90
32614;DHT22;19031;51.400;6.770;2023-05-07T15:31:24;20.00;99.90
32614;DHT22;19031;51.400;6.770;2023-05-07T15:33:56;20.10;99.90
32614;DHT22;19031;51.400;6.770;2023-05-07T15:36:21;20.20;99.90
32614;DHT22;19031;51.400;6.770;2023-05-07T15:38:50;20.20;99.90
32614;DHT22;19031;51.400;6.770;2023-05-07T15:41:15;20.10;99.90
32614;DHT22;19031;51.400;6.770;2023-05-07T15:43:50;19.90;99.90
32614;DHT22;19031;51.400;6.770;2023-05-07T15:46:20;19.90;99.90
32614;DHT22;19031;51.400;6.770;2023-05-07T15:48:46;19.90;99.90
32614;DHT22;19031;51.400;6.770;2023-05-07T15:51:12;19.90;99.90
32614;DHT22;19031;51.400;6.770;2023-05-07T15:53:38;20.00;99.90